sensor_id;sensor_type;location;lat;lon;timestamp;pressure;altitude;pressure_sealevel;temperature;humidity
24858;BME280;12935;50.782;6.074;2023-07-02T00:00:06;98803.00;;;16.01;100.00
24858;BME280;12935;50.782;6.074;2023-07-02T00:02:32;98802.56;;;16.03;100.00
24858;BME280;12935;50.782;6.074;2023-07-02T00:04:58;98801.19;;;16.07;100.00
24858;BME280;12935;50.782;6.074;2023-07-02T00:07:23;98793.44;;;16.15;100.00
24858;BME280;12935;50.782;6.074;2023-07-02T00:09:51;98796.22;;;16.15;100.00
24858;BME280;12935;50.782;6.074;2023-07-02T00:12:16;98796.00;;;16.09;100.00
24858;BME280;12935;50.782;6.074;2023-07-02T00:14:41;98796.88;;;16.06;100.00
24858;BME280;12935;50.782;6.074;2023-07-02T00:17:06;98802.88;;;16.05;100.00
24858;BME280;12935;50.782;6.074;2023-07-02T00:19:32;98796.75;;;15.88;100.00
24858;BME280;12935;50.782;6.074;2023-07-02T00:21:58;98798.94;;;15.93;100.00
24858;BME280;12935;50.782;6.074;2023-07-02T00:24:23;98792.19;;;15.72;100.00
24858;BME280;12935;50.782;6.074;2023-07-02T00:26:48;98787.63;;;15.78;100.00
24858;BME280;12935;50.782;6.074;2023-07-02T00:29:14;98793.34;;;15.84;100.00
24858;BME280;12935;50.782;6.074;2023-07-02T00:31:39;98798.88;;;15.84;100.00
24858;BME280;12935;50.782;6.074;2023-07-02T00:34:05;98789.63;;;15.78;100.00
24858;BME280;12935;50.782;6.074;2023-07-02T00:36:31;98786.41;;;15.79;100.00
24858;BME280;12935;50.782;6.074;2023-07-02T00:38:56;98788.66;;;15.72;100.00
24858;BME280;12935;50.782;6.074;2023-07-02T00:41:22;98784.72;;;15.48;100.00
24858;BME280;12935;50.782;6.074;2023-07-02T00:43:48;98790.47;;;15.40;100.00
24858;BME280;12935;50.782;6.074;2023-07-02T00:46:16;98791.31;;;15.50;100.00
24858;BME280;12935;50.782;6.074;2023-07-02T00:48:44;98778.97;;;15.55;100.00
24858;BME280;12935;50.782;6.074;2023-07-02T00:51:12;98785.81;;;15.63;100.00
24858;BME280;12935;50.782;6.074;2023-07-02T00:53:39;98779.09;;;15.64;100.00
24858;BME280;12935;50.782;6.074;2023-07-02T00:56:05;98789.66;;;15.53;100.00
24858;BME280;12935;50.782;6.074;2023-07-02T00:58:30;98791.22;;;15.54;100.00
24858;BME280;12935;50.782;6.074;2023-07-02T01:00:56;98788.13;;;15.52;100.00
24858;BME280;12935;50.782;6.074;2023-07-02T01:03:22;98787.16;;;15.58;100.00
24858;BME280;12935;50.782;6.074;2023-07-02T01:05:47;98789.00;;;15.49;100.00
24858;BME280;12935;50.782;6.074;2023-07-02T01:08:13;98783.97;;;15.34;100.00
24858;BME280;12935;50.782;6.074;2023-07-02T01:10:38;98788.56;;;15.50;100.00
24858;BME280;12935;50.782;6.074;2023-07-02T01:13:08;98788.91;;;15.52;100.00
24858;BME280;12935;50.782;6.074;2023-07-02T01:15:39;98794.66;;;15.58;100.00
24858;BME280;12935;50.782;6.074;2023-07-02T01:18:06;98786.59;;;15.51;100.00
24858;BME280;12935;50.782;6.074;2023-07-02T01:20:32;98795.84;;;15.44;100.00
24858;BME280;12935;50.782;6.074;2023-07-02T01:22:59;98785.28;;;15.42;100.00
24858;BME280;12935;50.782;6.074;2023-07-02T01:25:29;98793.09;;;15.31;100.00
24858;BME280;12935;50.782;6.074;2023-07-02T01:27:54;98793.34;;;15.37;100.00
24858;BME280;12935;50.782;6.074;2023-07-02T01:30:20;98781.63;;;15.45;100.00
24858;BME280;12935;50.782;6.074;2023-07-02T01:32:46;98778.44;;;15.47;100.00
24858;BME280;12935;50.782;6.074;2023-07-02T01:35:11;98782.84;;;15.44;100.00
24858;BME280;12935;50.782;6.074;2023-07-02T01:37:36;98784.38;;;15.45;100.00
24858;BME280;12935;50.782;6.074;2023-07-02T01:40:05;98792.56;;;15.36;100.00
24858;BME280;12935;50.782;6.074;2023-07-02T01:42:34;98784.53;;;15.42;100.00
24858;BME280;12935;50.782;6.074;2023-07-02T01:44:59;98787.47;;;15.48;100.00
24858;BME280;12935;50.782;6.074;2023-07-02T01:47:25;98789.22;;;15.54;100.00
24858;BME280;12935;50.782;6.074;2023-07-02T01:49:50;98790.00;;;15.55;100.00
24858;BME280;12935;50.782;6.074;2023-07-02T01:52:16;98788.81;;;15.56;100.00
24858;BME280;12935;50.782;6.074;2023-07-02T01:54:42;98778.66;;;15.53;100.00
24858;BME280;12935;50.782;6.074;2023-07-02T01:57:07;98776.41;;;15.26;100.00
24858;BME280;12935;50.782;6.074;2023-07-02T01:59:33;98785.66;;;15.19;100.00
24858;BME280;12935;50.782;6.074;2023-07-02T02:01:58;98796.19;;;15.33;100.00
24858;BME280;12935;50.782;6.074;2023-07-02T02:04:24;98798.59;;;15.44;100.00
24858;BME280;12935;50.782;6.074;2023-07-02T02:06:49;98797.59;;;15.51;100.00
24858;BME280;12935;50.782;6.074;2023-07-02T02:09:14;98801.81;;;15.55;100.00
24858;BME280;12935;50.782;6.074;2023-07-02T02:11:42;98802.69;;;15.27;100.00
24858;BME280;12935;50.782;6.074;2023-07-02T02:14:08;98808.97;;;15.15;100.00
24858;BME280;12935;50.782;6.074;2023-07-02T02:16:33;98809.53;;;15.22;100.00
24858;BME280;12935;50.782;6.074;2023-07-02T02:19:01;98821.31;;;15.35;100.00
24858;BME280;12935;50.782;6.074;2023-07-02T02:21:27;98811.50;;;15.34;100.00
24858;BME280;12935;50.782;6.074;2023-07-02T02:23:52;98805.91;;;15.25;100.00
24858;BME280;12935;50.782;6.074;2023-07-02T02:26:18;98812.16;;;15.13;100.00
24858;BME280;12935;50.782;6.074;2023-07-02T02:28:43;98809.28;;;15.29;100.00
24858;BME280;12935;50.782;6.074;2023-07-02T02:31:09;98813.03;;;15.35;100.00
24858;BME280;12935;50.782;6.074;2023-07-02T02:33:34;98809.06;;;15.36;100.00
24858;BME280;12935;50.782;6.074;2023-07-02T02:36:03;98816.31;;;15.43;100.00
24858;BME280;12935;50.782;6.074;2023-07-02T02:38:29;98810.25;;;15.48;100.00
24858;BME280;12935;50.782;6.074;2023-07-02T02:40:54;98814.44;;;15.53;100.00
24858;BME280;12935;50.782;6.074;2023-07-02T02:43:19;98818.66;;;15.57;100.00
24858;BME280;12935;50.782;6.074;2023-07-02T02:45:46;98821.50;;;15.54;100.00
24858;BME280;12935;50.782;6.074;2023-07-02T02:48:11;98817.88;;;15.44;100.00
24858;BME280;12935;50.782;6.074;2023-07-02T02:50:37;98817.44;;;15.33;100.00
24858;BME280;12935;50.782;6.074;2023-07-02T02:53:09;98815.91;;;15.32;100.00
24858;BME280;12935;50.782;6.074;2023-07-02T02:55:36;98809.97;;;15.33;100.00
24858;BME280;12935;50.782;6.074;2023-07-02T02:58:01;98817.13;;;15.31;100.00
24858;BME280;12935;50.782;6.074;2023-07-02T03:00:26;98816.44;;;15.27;100.00
24858;BME280;12935;50.782;6.074;2023-07-02T03:02:51;98818.78;;;15.41;100.00
24858;BME280;12935;50.782;6.074;2023-07-02T03:05:17;98823.81;;;15.42;100.00
24858;BME280;12935;50.782;6.074;2023-07-02T03:07:42;98823.59;;;15.50;100.00
24858;BME280;12935;50.782;6.074;2023-07-02T03:10:08;98820.06;;;15.49;100.00
24858;BME280;12935;50.782;6.074;2023-07-02T03:12:33;98827.38;;;15.56;100.00
24858;BME280;12935;50.782;6.074;2023-07-02T03:14:59;98827.56;;;15.61;100.00
24858;BME280;12935;50.782;6.074;2023-07-02T03:17:24;98815.66;;;15.64;100.00
24858;BME280;12935;50.782;6.074;2023-07-02T03:19:49;98825.34;;;15.69;100.00
24858;BME280;12935;50.782;6.074;2023-07-02T03:22:16;98818.19;;;15.71;100.00
24858;BME280;12935;50.782;6.074;2023-07-02T03:24:41;98820.19;;;15.71;100.00
24858;BME280;12935;50.782;6.074;2023-07-02T03:27:06;98828.22;;;15.65;100.00
24858;BME280;12935;50.782;6.074;2023-07-02T03:29:34;98824.38;;;15.50;100.00
24858;BME280;12935;50.782;6.074;2023-07-02T03:31:59;98826.16;;;15.57;100.00
24858;BME280;12935;50.782;6.074;2023-07-02T03:34:25;98822.06;;;15.49;100.00
24858;BME280;12935;50.782;6.074;2023-07-02T03:36:50;98833.50;;;15.47;100.00
24858;BME280;12935;50.782;6.074;2023-07-02T03:39:16;98824.81;;;15.49;100.00
24858;BME280;12935;50.782;6.074;2023-07-02T03:41:42;98831.97;;;15.59;100.00
24858;BME280;12935;50.782;6.074;2023-07-02T03:44:07;98840.78;;;15.66;100.00
24858;BME280;12935;50.782;6.074;2023-07-02T03:46:33;98843.09;;;15.68;100.00
24858;BME280;12935;50.782;6.074;2023-07-02T03:48:58;98847.72;;;15.71;100.00
24858;BME280;12935;50.782;6.074;2023-07-02T03:51:23;98849.69;;;15.70;100.00
24858;BME280;12935;50.782;6.074;2023-07-02T03:53:49;98849.81;;;15.67;100.00
24858;BME280;12935;50.782;6.074;2023-07-02T03:56:14;98855.88;;;15.62;100.00
24858;BME280;12935;50.782;6.074;2023-07-02T03:58:40;98850.59;;;15.55;100.00
24858;BME280;12935;50.782;6.074;2023-07-02T04:01:05;98855.31;;;15.54;100.00
24858;BME280;12935;50.782;6.074;2023-07-02T04:03:31;98866.00;;;15.65;100.00
24858;BME280;12935;50.782;6.074;2023-07-02T04:05:56;98867.44;;;15.69;100.00
24858;BME280;12935;50.782;6.074;2023-07-02T04:08:21;98857.50;;;15.47;100.00
24858;BME280;12935;50.782;6.074;2023-07-02T04:10:47;98876.44;;;15.44;100.00
24858;BME280;12935;50.782;6.074;2023-07-02T04:13:12;98876.78;;;15.47;100.00
24858;BME280;12935;50.782;6.074;2023-07-02T04:15:37;98881.84;;;15.35;100.00
24858;BME280;12935;50.782;6.074;2023-07-02T04:18:03;98885.47;;;15.45;100.00
24858;BME280;12935;50.782;6.074;2023-07-02T04:20:28;98887.69;;;15.50;100.00
24858;BME280;12935;50.782;6.074;2023-07-02T04:22:54;98882.53;;;15.52;100.00
24858;BME280;12935;50.782;6.074;2023-07-02T04:25:19;98889.44;;;15.44;100.00
24858;BME280;12935;50.782;6.074;2023-07-02T04:27:45;98885.72;;;15.51;100.00
24858;BME280;12935;50.782;6.074;2023-07-02T04:30:11;98888.28;;;15.58;100.00
24858;BME280;12935;50.782;6.074;2023-07-02T04:32:37;98891.88;;;15.55;100.00
24858;BME280;12935;50.782;6.074;2023-07-02T04:35:09;98888.72;;;15.56;100.00
24858;BME280;12935;50.782;6.074;2023-07-02T04:37:35;98890.56;;;15.59;100.00
24858;BME280;12935;50.782;6.074;2023-07-02T04:40:00;98900.38;;;15.60;100.00
24858;BME280;12935;50.782;6.074;2023-07-02T04:42:29;98894.97;;;15.69;100.00
24858;BME280;12935;50.782;6.074;2023-07-02T04:44:57;98892.88;;;15.73;100.00
24858;BME280;12935;50.782;6.074;2023-07-02T04:47:27;98903.56;;;15.84;100.00
24858;BME280;12935;50.782;6.074;2023-07-02T04:49:52;98897.81;;;15.78;100.00
24858;BME280;12935;50.782;6.074;2023-07-02T04:52:17;98906.84;;;15.79;100.00
24858;BME280;12935;50.782;6.074;2023-07-02T04:54:42;98893.53;;;15.77;100.00
24858;BME280;12935;50.782;6.074;2023-07-02T04:57:08;98906.72;;;15.95;100.00
24858;BME280;12935;50.782;6.074;2023-07-02T04:59:33;98914.31;;;16.04;100.00
24858;BME280;12935;50.782;6.074;2023-07-02T05:01:58;98917.59;;;16.11;100.00
24858;BME280;12935;50.782;6.074;2023-07-02T05:04:23;98919.91;;;16.13;100.00
24858;BME280;12935;50.782;6.074;2023-07-02T05:06:49;98909.31;;;16.11;100.00
24858;BME280;12935;50.782;6.074;2023-07-02T05:09:14;98918.81;;;16.10;100.00
24858;BME280;12935;50.782;6.074;2023-07-02T05:11:39;98909.72;;;15.88;100.00
24858;BME280;12935;50.782;6.074;2023-07-02T05:14:05;98916.09;;;15.98;100.00
24858;BME280;12935;50.782;6.074;2023-07-02T05:16:30;98928.28;;;16.09;100.00
24858;BME280;12935;50.782;6.074;2023-07-02T05:18:55;98922.88;;;16.19;100.00
24858;BME280;12935;50.782;6.074;2023-07-02T05:21:20;98931.00;;;16.22;100.00
24858;BME280;12935;50.782;6.074;2023-07-02T05:23:47;98917.56;;;16.24;100.00
24858;BME280;12935;50.782;6.074;2023-07-02T05:26:12;98922.84;;;16.31;100.00
24858;BME280;12935;50.782;6.074;2023-07-02T05:28:37;98929.88;;;16.32;100.00
24858;BME280;12935;50.782;6.074;2023-07-02T05:31:03;98928.13;;;16.26;100.00
24858;BME280;12935;50.782;6.074;2023-07-02T05:33:28;98924.22;;;16.14;100.00
24858;BME280;12935;50.782;6.074;2023-07-02T05:35:53;98927.94;;;16.20;100.00
24858;BME280;12935;50.782;6.074;2023-07-02T05:38:19;98922.28;;;16.24;100.00
24858;BME280;12935;50.782;6.074;2023-07-02T05:40:45;98925.50;;;16.22;100.00
24858;BME280;12935;50.782;6.074;2023-07-02T05:43:11;98936.84;;;16.24;100.00
24858;BME280;12935;50.782;6.074;2023-07-02T05:45:36;98927.78;;;16.36;100.00
24858;BME280;12935;50.782;6.074;2023-07-02T05:48:01;98948.41;;;16.32;100.00
24858;BME280;12935;50.782;6.074;2023-07-02T05:50:27;98935.69;;;16.47;100.00
24858;BME280;12935;50.782;6.074;2023-07-02T05:52:52;98939.59;;;16.59;100.00
24858;BME280;12935;50.782;6.074;2023-07-02T05:55:17;98940.81;;;16.58;100.00
24858;BME280;12935;50.782;6.074;2023-07-02T05:57:42;98936.06;;;16.36;100.00
24858;BME280;12935;50.782;6.074;2023-07-02T06:00:08;98945.34;;;16.64;100.00
24858;BME280;12935;50.782;6.074;2023-07-02T06:02:33;98952.25;;;16.69;100.00
24858;BME280;12935;50.782;6.074;2023-07-02T06:04:59;98945.53;;;16.70;100.00
24858;BME280;12935;50.782;6.074;2023-07-02T06:07:24;98940.16;;;16.66;100.00
24858;BME280;12935;50.782;6.074;2023-07-02T06:09:50;98938.19;;;16.67;100.00
24858;BME280;12935;50.782;6.074;2023-07-02T06:12:16;98948.75;;;16.56;100.00
24858;BME280;12935;50.782;6.074;2023-07-02T06:14:41;98949.66;;;16.65;100.00
24858;BME280;12935;50.782;6.074;2023-07-02T06:17:07;98956.78;;;16.75;100.00
24858;BME280;12935;50.782;6.074;2023-07-02T06:19:33;98953.91;;;16.79;100.00
24858;BME280;12935;50.782;6.074;2023-07-02T06:21:59;98962.28;;;16.75;100.00
24858;BME280;12935;50.782;6.074;2023-07-02T06:24:24;98956.63;;;17.01;100.00
24858;BME280;12935;50.782;6.074;2023-07-02T06:26:50;98963.00;;;17.10;100.00
24858;BME280;12935;50.782;6.074;2023-07-02T06:29:15;98964.91;;;17.01;100.00
24858;BME280;12935;50.782;6.074;2023-07-02T06:31:40;98968.19;;;17.08;100.00
24858;BME280;12935;50.782;6.074;2023-07-02T06:34:06;98967.75;;;17.10;100.00
24858;BME280;12935;50.782;6.074;2023-07-02T06:36:33;98972.69;;;17.15;100.00
24858;BME280;12935;50.782;6.074;2023-07-02T06:38:58;98974.97;;;17.16;100.00
24858;BME280;12935;50.782;6.074;2023-07-02T06:41:24;98972.44;;;17.00;100.00
24858;BME280;12935;50.782;6.074;2023-07-02T06:43:49;98968.44;;;17.01;100.00
24858;BME280;12935;50.782;6.074;2023-07-02T06:46:14;98985.41;;;17.12;100.00
24858;BME280;12935;50.782;6.074;2023-07-02T06:48:40;98983.66;;;17.06;100.00
24858;BME280;12935;50.782;6.074;2023-07-02T06:51:05;98980.38;;;17.20;100.00
24858;BME280;12935;50.782;6.074;2023-07-02T06:53:32;98991.41;;;17.42;100.00
24858;BME280;12935;50.782;6.074;2023-07-02T06:55:57;98991.09;;;17.40;100.00
24858;BME280;12935;50.782;6.074;2023-07-02T06:58:22;98996.50;;;17.43;100.00
24858;BME280;12935;50.782;6.074;2023-07-02T07:00:47;98998.50;;;17.52;100.00
24858;BME280;12935;50.782;6.074;2023-07-02T07:03:13;98997.28;;;17.53;100.00
24858;BME280;12935;50.782;6.074;2023-07-02T07:05:38;98997.41;;;17.71;100.00
24858;BME280;12935;50.782;6.074;2023-07-02T07:08:04;99002.88;;;17.93;100.00
24858;BME280;12935;50.782;6.074;2023-07-02T07:10:29;99008.25;;;17.97;100.00
24858;BME280;12935;50.782;6.074;2023-07-02T07:12:59;99006.13;;;18.01;100.00
24858;BME280;12935;50.782;6.074;2023-07-02T07:15:24;99011.69;;;18.10;100.00
24858;BME280;12935;50.782;6.074;2023-07-02T07:17:50;99009.03;;;17.97;100.00
24858;BME280;12935;50.782;6.074;2023-07-02T07:20:15;99002.56;;;17.91;100.00
24858;BME280;12935;50.782;6.074;2023-07-02T07:22:40;99016.84;;;17.90;100.00
24858;BME280;12935;50.782;6.074;2023-07-02T07:25:06;99014.72;;;17.94;100.00
24858;BME280;12935;50.782;6.074;2023-07-02T07:27:31;99005.03;;;17.98;100.00
24858;BME280;12935;50.782;6.074;2023-07-02T07:29:56;99006.41;;;17.94;100.00
24858;BME280;12935;50.782;6.074;2023-07-02T07:32:22;99004.91;;;18.02;100.00
24858;BME280;12935;50.782;6.074;2023-07-02T07:34:47;99016.47;;;18.18;100.00
24858;BME280;12935;50.782;6.074;2023-07-02T07:37:12;99010.03;;;18.21;100.00
24858;BME280;12935;50.782;6.074;2023-07-02T07:39:37;99022.19;;;18.24;100.00
24858;BME280;12935;50.782;6.074;2023-07-02T07:42:03;99018.97;;;18.26;100.00
24858;BME280;12935;50.782;6.074;2023-07-02T07:44:28;99020.97;;;18.34;100.00
24858;BME280;12935;50.782;6.074;2023-07-02T07:46:57;99014.63;;;18.15;100.00
24858;BME280;12935;50.782;6.074;2023-07-02T07:49:22;99025.22;;;18.17;100.00
24858;BME280;12935;50.782;6.074;2023-07-02T07:51:47;99022.47;;;18.26;100.00
24858;BME280;12935;50.782;6.074;2023-07-02T07:54:14;99018.19;;;18.34;100.00
24858;BME280;12935;50.782;6.074;2023-07-02T07:56:39;99018.06;;;18.47;100.00
24858;BME280;12935;50.782;6.074;2023-07-02T07:59:04;99025.28;;;18.35;100.00
24858;BME280;12935;50.782;6.074;2023-07-02T08:01:29;99028.50;;;18.43;100.00
24858;BME280;12935;50.782;6.074;2023-07-02T08:03:55;99026.50;;;18.43;100.00
24858;BME280;12935;50.782;6.074;2023-07-02T08:06:20;99027.28;;;18.35;100.00
24858;BME280;12935;50.782;6.074;2023-07-02T08:08:45;99028.91;;;18.81;100.00
24858;BME280;12935;50.782;6.074;2023-07-02T08:11:11;99028.28;;;18.96;100.00
24858;BME280;12935;50.782;6.074;2023-07-02T08:13:37;99028.13;;;18.81;100.00
24858;BME280;12935;50.782;6.074;2023-07-02T08:16:02;99034.13;;;18.98;100.00
24858;BME280;12935;50.782;6.074;2023-07-02T08:18:27;99035.31;;;19.24;100.00
24858;BME280;12935;50.782;6.074;2023-07-02T08:20:53;99036.25;;;19.30;100.00
24858;BME280;12935;50.782;6.074;2023-07-02T08:23:18;99037.03;;;18.94;100.00
24858;BME280;12935;50.782;6.074;2023-07-02T08:25:43;99037.66;;;18.98;100.00
24858;BME280;12935;50.782;6.074;2023-07-02T08:28:09;99040.41;;;19.07;100.00
24858;BME280;12935;50.782;6.074;2023-07-02T08:30:34;99050.09;;;19.21;100.00
24858;BME280;12935;50.782;6.074;2023-07-02T08:33:00;99042.88;;;19.33;98.70
24858;BME280;12935;50.782;6.074;2023-07-02T08:35:25;99049.50;;;19.08;100.00
24858;BME280;12935;50.782;6.074;2023-07-02T08:37:50;99054.72;;;18.78;100.00
24858;BME280;12935;50.782;6.074;2023-07-02T08:40:16;99059.94;;;18.76;100.00
24858;BME280;12935;50.782;6.074;2023-07-02T08:42:44;99066.72;;;18.75;100.00
24858;BME280;12935;50.782;6.074;2023-07-02T08:45:10;99049.94;;;18.61;100.00
24858;BME280;12935;50.782;6.074;2023-07-02T08:47:36;99061.56;;;18.46;100.00
24858;BME280;12935;50.782;6.074;2023-07-02T08:50:02;99056.97;;;18.52;100.00
24858;BME280;12935;50.782;6.074;2023-07-02T08:52:28;99073.47;;;18.74;100.00
24858;BME280;12935;50.782;6.074;2023-07-02T08:54:54;99072.56;;;18.77;100.00
24858;BME280;12935;50.782;6.074;2023-07-02T08:57:20;99063.97;;;18.93;100.00
24858;BME280;12935;50.782;6.074;2023-07-02T08:59:46;99061.66;;;18.83;100.00
24858;BME280;12935;50.782;6.074;2023-07-02T09:02:12;99070.25;;;18.76;100.00
24858;BME280;12935;50.782;6.074;2023-07-02T09:04:38;99057.00;;;18.62;100.00
24858;BME280;12935;50.782;6.074;2023-07-02T09:07:08;99067.38;;;18.88;100.00
24858;BME280;12935;50.782;6.074;2023-07-02T09:09:45;99071.19;;;18.82;100.00
24858;BME280;12935;50.782;6.074;2023-07-02T09:12:29;99071.66;;;18.80;100.00
24858;BME280;12935;50.782;6.074;2023-07-02T09:15:05;99071.53;;;19.02;100.00
24858;BME280;12935;50.782;6.074;2023-07-02T09:17:35;99071.16;;;19.37;100.00
24858;BME280;12935;50.782;6.074;2023-07-02T09:20:03;99075.44;;;19.74;100.00
24858;BME280;12935;50.782;6.074;2023-07-02T09:22:30;99064.78;;;19.91;97.40
24858;BME280;12935;50.782;6.074;2023-07-02T09:24:59;99057.44;;;19.70;98.71
24858;BME280;12935;50.782;6.074;2023-07-02T09:30:14;99080.72;;;19.54;99.99
24858;BME280;12935;50.782;6.074;2023-07-02T09:32:42;99064.28;;;19.50;100.00
24858;BME280;12935;50.782;6.074;2023-07-02T09:35:08;99070.72;;;19.56;100.00
24858;BME280;12935;50.782;6.074;2023-07-02T09:37:34;99075.41;;;19.83;100.00
24858;BME280;12935;50.782;6.074;2023-07-02T09:40:00;99065.97;;;19.99;96.25
24858;BME280;12935;50.782;6.074;2023-07-02T09:42:27;99068.28;;;20.01;94.54
24858;BME280;12935;50.782;6.074;2023-07-02T09:44:54;99062.00;;;19.91;94.96
24858;BME280;12935;50.782;6.074;2023-07-02T09:47:21;99069.25;;;19.88;93.31
24858;BME280;12935;50.782;6.074;2023-07-02T09:49:55;99069.28;;;19.79;88.00
24858;BME280;12935;50.782;6.074;2023-07-02T09:52:23;99068.38;;;19.73;87.17
24858;BME280;12935;50.782;6.074;2023-07-02T09:54:48;99068.38;;;19.73;86.41
24858;BME280;12935;50.782;6.074;2023-07-02T09:57:13;99082.31;;;19.97;87.54
24858;BME280;12935;50.782;6.074;2023-07-02T09:59:40;99072.19;;;19.85;85.44
24858;BME280;12935;50.782;6.074;2023-07-02T10:02:05;99070.88;;;19.62;87.56
24858;BME280;12935;50.782;6.074;2023-07-02T10:04:45;99073.34;;;19.14;93.40
24858;BME280;12935;50.782;6.074;2023-07-02T10:07:11;99076.41;;;18.89;95.70
24858;BME280;12935;50.782;6.074;2023-07-02T10:12:30;99090.84;;;18.75;98.53
24858;BME280;12935;50.782;6.074;2023-07-02T10:14:57;99085.66;;;18.95;95.78
24858;BME280;12935;50.782;6.074;2023-07-02T10:17:30;99085.34;;;18.93;92.38
24858;BME280;12935;50.782;6.074;2023-07-02T10:19:58;99082.25;;;18.73;89.58
24858;BME280;12935;50.782;6.074;2023-07-02T10:22:24;99096.38;;;18.66;94.34
24858;BME280;12935;50.782;6.074;2023-07-02T10:24:57;99091.63;;;18.75;95.97
24858;BME280;12935;50.782;6.074;2023-07-02T10:27:39;99086.19;;;18.53;98.26
24858;BME280;12935;50.782;6.074;2023-07-02T10:30:05;99097.28;;;18.63;99.18
24858;BME280;12935;50.782;6.074;2023-07-02T10:32:32;99090.50;;;18.54;98.30
24858;BME280;12935;50.782;6.074;2023-07-02T10:34:59;99099.28;;;18.62;92.38
24858;BME280;12935;50.782;6.074;2023-07-02T10:37:34;99091.44;;;18.61;89.00
24858;BME280;12935;50.782;6.074;2023-07-02T10:40:02;99095.69;;;19.20;86.98
24858;BME280;12935;50.782;6.074;2023-07-02T10:42:29;99089.03;;;19.54;84.69
24858;BME280;12935;50.782;6.074;2023-07-02T10:44:55;99084.78;;;19.95;84.88
24858;BME280;12935;50.782;6.074;2023-07-02T10:47:20;99088.38;;;19.68;81.62
24858;BME280;12935;50.782;6.074;2023-07-02T10:49:45;99091.03;;;19.44;80.13
24858;BME280;12935;50.782;6.074;2023-07-02T10:52:11;99084.91;;;19.13;81.22
24858;BME280;12935;50.782;6.074;2023-07-02T10:54:41;99080.88;;;18.96;82.64
24858;BME280;12935;50.782;6.074;2023-07-02T10:57:07;99087.34;;;18.83;83.66
24858;BME280;12935;50.782;6.074;2023-07-02T10:59:33;99091.03;;;18.80;85.14
24858;BME280;12935;50.782;6.074;2023-07-02T11:01:59;99089.47;;;18.79;84.31
24858;BME280;12935;50.782;6.074;2023-07-02T11:04:27;99087.94;;;18.78;85.60
24858;BME280;12935;50.782;6.074;2023-07-02T11:06:53;99093.66;;;18.84;85.72
24858;BME280;12935;50.782;6.074;2023-07-02T11:09:19;99093.97;;;18.86;85.13
24858;BME280;12935;50.782;6.074;2023-07-02T11:12:07;99096.09;;;18.91;82.31
24858;BME280;12935;50.782;6.074;2023-07-02T11:14:34;99092.41;;;18.94;80.63
24858;BME280;12935;50.782;6.074;2023-07-02T11:17:04;99095.66;;;19.11;78.78
24858;BME280;12935;50.782;6.074;2023-07-02T11:19:31;99097.19;;;19.48;76.67
24858;BME280;12935;50.782;6.074;2023-07-02T11:21:57;99084.88;;;20.10;75.36
24858;BME280;12935;50.782;6.074;2023-07-02T11:24:36;99093.09;;;20.70;70.72
24858;BME280;12935;50.782;6.074;2023-07-02T11:27:05;99091.47;;;20.78;65.92
24858;BME280;12935;50.782;6.074;2023-07-02T11:29:32;99085.63;;;20.52;67.43
24858;BME280;12935;50.782;6.074;2023-07-02T11:32:10;99093.69;;;19.99;69.91
24858;BME280;12935;50.782;6.074;2023-07-02T11:34:37;99099.28;;;19.90;72.52
24858;BME280;12935;50.782;6.074;2023-07-02T11:37:03;99088.13;;;19.66;72.08
24858;BME280;12935;50.782;6.074;2023-07-02T11:39:29;99096.19;;;19.97;73.32
24858;BME280;12935;50.782;6.074;2023-07-02T11:41:55;99088.50;;;19.92;75.13
24858;BME280;12935;50.782;6.074;2023-07-02T11:44:20;99092.84;;;20.17;75.10
24858;BME280;12935;50.782;6.074;2023-07-02T11:46:47;99095.16;;;20.18;73.30
24858;BME280;12935;50.782;6.074;2023-07-02T11:49:13;99086.53;;;20.25;71.47
24858;BME280;12935;50.782;6.074;2023-07-02T11:51:39;99085.66;;;20.76;72.07
24858;BME280;12935;50.782;6.074;2023-07-02T11:54:05;99090.03;;;21.30;66.09
24858;BME280;12935;50.782;6.074;2023-07-02T11:56:30;99091.59;;;21.46;65.18
24858;BME280;12935;50.782;6.074;2023-07-02T11:58:56;99107.81;;;22.07;62.32
24858;BME280;12935;50.782;6.074;2023-07-02T12:01:21;99086.41;;;22.27;59.81
24858;BME280;12935;50.782;6.074;2023-07-02T12:03:47;99092.00;;;22.83;57.54
24858;BME280;12935;50.782;6.074;2023-07-02T12:06:12;99094.34;;;22.69;55.75
24858;BME280;12935;50.782;6.074;2023-07-02T12:08:37;99090.91;;;22.60;54.35
24858;BME280;12935;50.782;6.074;2023-07-02T12:11:03;99081.13;;;22.64;54.23
24858;BME280;12935;50.782;6.074;2023-07-02T12:13:28;99083.44;;;22.31;53.52
24858;BME280;12935;50.782;6.074;2023-07-02T12:15:53;99084.28;;;22.22;54.40
24858;BME280;12935;50.782;6.074;2023-07-02T12:18:19;99087.47;;;22.30;55.24
24858;BME280;12935;50.782;6.074;2023-07-02T12:20:44;99103.03;;;22.57;56.45
24858;BME280;12935;50.782;6.074;2023-07-02T12:23:10;99102.94;;;21.87;54.36
24858;BME280;12935;50.782;6.074;2023-07-02T12:25:38;99100.56;;;22.44;55.58
24858;BME280;12935;50.782;6.074;2023-07-02T12:28:04;99098.34;;;22.83;56.17
24858;BME280;12935;50.782;6.074;2023-07-02T12:30:30;99106.00;;;22.53;52.65
24858;BME280;12935;50.782;6.074;2023-07-02T12:32:55;99094.16;;;22.38;54.80
24858;BME280;12935;50.782;6.074;2023-07-02T12:35:21;99092.50;;;22.81;53.57
24858;BME280;12935;50.782;6.074;2023-07-02T12:37:48;99085.94;;;22.14;52.19
24858;BME280;12935;50.782;6.074;2023-07-02T12:40:13;99100.03;;;21.96;52.95
24858;BME280;12935;50.782;6.074;2023-07-02T12:42:40;99096.13;;;21.88;54.19
24858;BME280;12935;50.782;6.074;2023-07-02T12:45:06;99098.50;;;21.51;56.44
24858;BME280;12935;50.782;6.074;2023-07-02T12:47:32;99109.22;;;21.05;57.33
24858;BME280;12935;50.782;6.074;2023-07-02T12:49:57;99099.91;;;20.93;59.74
24858;BME280;12935;50.782;6.074;2023-07-02T12:52:22;99101.66;;;20.81;60.39